sensor_id;sensor_type;location;lat;lon;timestamp;P1;durP1;ratioP1;P2;durP2;ratioP2
9948;SDS011;5013;51.840;8.276;2023-08-01T00:00:30;2.50;;;1.70;;
9948;SDS011;5013;51.840;8.276;2023-08-01T00:02:56;1.87;;;1.77;;
9948;SDS011;5013;51.840;8.276;2023-08-01T00:05:22;2.73;;;2.30;;
9948;SDS011;5013;51.840;8.276;2023-08-01T00:07:48;2.03;;;1.80;;
9948;SDS011;5013;51.840;8.276;2023-08-01T00:10:13;2.00;;;1.90;;
9948;SDS011;5013;51.840;8.276;2023-08-01T00:12:41;2.00;;;1.90;;
9948;SDS011;5013;51.840;8.276;2023-08-01T00:15:07;2.37;;;2.20;;
9948;SDS011;5013;51.840;8.276;2023-08-01T00:17:33;1.63;;;1.60;;
9948;SDS011;5013;51.840;8.276;2023-08-01T00:19:59;2.07;;;1.97;;
9948;SDS011;5013;51.840;8.276;2023-08-01T00:22:26;1.80;;;1.70;;
9948;SDS011;5013;51.840;8.276;2023-08-01T00:24:51;1.40;;;1.30;;
9948;SDS011;5013;51.840;8.276;2023-08-01T00:27:17;2.00;;;1.60;;
9948;SDS011;5013;51.840;8.276;2023-08-01T00:29:42;1.60;;;1.50;;
9948;SDS011;5013;51.840;8.276;2023-08-01T00:32:08;2.03;;;1.93;;
9948;SDS011;5013;51.840;8.276;2023-08-01T00:34:34;1.30;;;1.30;;
9948;SDS011;5013;51.840;8.276;2023-08-01T00:36:59;4.20;;;1.40;;
9948;SDS011;5013;51.840;8.276;2023-08-01T00:39:25;1.40;;;1.40;;
9948;SDS011;5013;51.840;8.276;2023-08-01T00:41:50;1.90;;;1.80;;
9948;SDS011;5013;51.840;8.276;2023-08-01T00:44:16;1.60;;;1.50;;
9948;SDS011;5013;51.840;8.276;2023-08-01T00:46:42;3.13;;;1.80;;
9948;SDS011;5013;51.840;8.276;2023-08-01T00:49:07;2.27;;;1.40;;
9948;SDS011;5013;51.840;8.276;2023-08-01T00:51:33;1.40;;;1.30;;
9948;SDS011;5013;51.840;8.276;2023-08-01T00:53:59;1.50;;;1.43;;
9948;SDS011;5013;51.840;8.276;2023-08-01T00:56:25;8.07;;;2.17;;
9948;SDS011;5013;51.840;8.276;2023-08-01T00:58:51;1.93;;;1.63;;
9948;SDS011;5013;51.840;8.276;2023-08-01T01:01:16;1.60;;;1.50;;
9948;SDS011;5013;51.840;8.276;2023-08-01T01:03:42;1.90;;;1.80;;
9948;SDS011;5013;51.840;8.276;2023-08-01T01:06:09;1.67;;;1.63;;
9948;SDS011;5013;51.840;8.276;2023-08-01T01:08:37;1.83;;;1.60;;
9948;SDS011;5013;51.840;8.276;2023-08-01T01:11:03;1.77;;;1.70;;
9948;SDS011;5013;51.840;8.276;2023-08-01T01:13:29;1.27;;;1.27;;
9948;SDS011;5013;51.840;8.276;2023-08-01T01:15:55;2.30;;;1.77;;
9948;SDS011;5013;51.840;8.276;2023-08-01T01:18:20;2.73;;;1.80;;
9948;SDS011;5013;51.840;8.276;2023-08-01T01:20:46;1.70;;;1.60;;
9948;SDS011;5013;51.840;8.276;2023-08-01T01:23:11;5.97;;;1.50;;
9948;SDS011;5013;51.840;8.276;2023-08-01T01:25:37;1.40;;;1.40;;
9948;SDS011;5013;51.840;8.276;2023-08-01T01:28:04;2.47;;;2.10;;
9948;SDS011;5013;51.840;8.276;2023-08-01T01:30:32;1.80;;;1.70;;
9948;SDS011;5013;51.840;8.276;2023-08-01T01:32:59;2.60;;;1.97;;
9948;SDS011;5013;51.840;8.276;2023-08-01T01:35:25;3.73;;;2.00;;
9948;SDS011;5013;51.840;8.276;2023-08-01T01:37:51;4.27;;;2.10;;
9948;SDS011;5013;51.840;8.276;2023-08-01T01:40:17;2.00;;;1.77;;
9948;SDS011;5013;51.840;8.276;2023-08-01T01:42:42;1.80;;;1.70;;
9948;SDS011;5013;51.840;8.276;2023-08-01T01:45:08;2.40;;;2.10;;
9948;SDS011;5013;51.840;8.276;2023-08-01T01:47:34;1.90;;;1.80;;
9948;SDS011;5013;51.840;8.276;2023-08-01T01:49:59;2.30;;;1.87;;
9948;SDS011;5013;51.840;8.276;2023-08-01T01:52:25;2.80;;;2.10;;
9948;SDS011;5013;51.840;8.276;2023-08-01T01:54:50;1.93;;;1.83;;
9948;SDS011;5013;51.840;8.276;2023-08-01T01:57:16;1.90;;;1.70;;
9948;SDS011;5013;51.840;8.276;2023-08-01T01:59:42;1.70;;;1.60;;
9948;SDS011;5013;51.840;8.276;2023-08-01T02:02:07;1.50;;;1.50;;
9948;SDS011;5013;51.840;8.276;2023-08-01T02:04:33;1.37;;;1.30;;
9948;SDS011;5013;51.840;8.276;2023-08-01T02:06:58;3.10;;;1.60;;
9948;SDS011;5013;51.840;8.276;2023-08-01T02:09:24;1.60;;;1.20;;
9948;SDS011;5013;51.840;8.276;2023-08-01T02:11:49;1.70;;;1.60;;
9948;SDS011;5013;51.840;8.276;2023-08-01T02:14:15;1.50;;;1.50;;
9948;SDS011;5013;51.840;8.276;2023-08-01T02:16:41;1.60;;;1.50;;
9948;SDS011;5013;51.840;8.276;2023-08-01T02:19:06;1.50;;;1.40;;
9948;SDS011;5013;51.840;8.276;2023-08-01T02:21:32;1.63;;;1.53;;
9948;SDS011;5013;51.840;8.276;2023-08-01T02:23:57;1.43;;;1.43;;
9948;SDS011;5013;51.840;8.276;2023-08-01T02:26:23;1.90;;;1.80;;
9948;SDS011;5013;51.840;8.276;2023-08-01T02:28:49;1.67;;;1.63;;
9948;SDS011;5013;51.840;8.276;2023-08-01T02:31:16;2.30;;;2.10;;
9948;SDS011;5013;51.840;8.276;2023-08-01T02:33:42;2.20;;;2.00;;
9948;SDS011;5013;51.840;8.276;2023-08-01T02:36:07;3.37;;;2.07;;
9948;SDS011;5013;51.840;8.276;2023-08-01T02:38:33;1.83;;;1.40;;
9948;SDS011;5013;51.840;8.276;2023-08-01T02:40:59;2.40;;;2.20;;
9948;SDS011;5013;51.840;8.276;2023-08-01T02:43:24;3.20;;;1.43;;
9948;SDS011;5013;51.840;8.276;2023-08-01T02:45:50;1.53;;;1.37;;
9948;SDS011;5013;51.840;8.276;2023-08-01T02:48:15;1.97;;;1.80;;
9948;SDS011;5013;51.840;8.276;2023-08-01T02:50:41;2.93;;;1.77;;
9948;SDS011;5013;51.840;8.276;2023-08-01T02:53:07;1.80;;;1.70;;
9948;SDS011;5013;51.840;8.276;2023-08-01T02:55:32;1.63;;;1.53;;
9948;SDS011;5013;51.840;8.276;2023-08-01T02:57:58;1.70;;;1.60;;
9948;SDS011;5013;51.840;8.276;2023-08-01T03:00:23;1.47;;;1.47;;
9948;SDS011;5013;51.840;8.276;2023-08-01T03:02:50;2.10;;;2.00;;
9948;SDS011;5013;51.840;8.276;2023-08-01T03:05:16;1.60;;;1.50;;
9948;SDS011;5013;51.840;8.276;2023-08-01T03:07:42;2.40;;;2.00;;
9948;SDS011;5013;51.840;8.276;2023-08-01T03:10:08;5.00;;;1.80;;
9948;SDS011;5013;51.840;8.276;2023-08-01T03:12:34;5.57;;;2.00;;
9948;SDS011;5013;51.840;8.276;2023-08-01T03:15:00;2.63;;;2.00;;
9948;SDS011;5013;51.840;8.276;2023-08-01T03:17:25;3.03;;;1.90;;
9948;SDS011;5013;51.840;8.276;2023-08-01T03:19:51;2.20;;;2.10;;
9948;SDS011;5013;51.840;8.276;2023-08-01T03:22:16;3.50;;;2.27;;
9948;SDS011;5013;51.840;8.276;2023-08-01T03:24:42;2.87;;;2.10;;
9948;SDS011;5013;51.840;8.276;2023-08-01T03:27:07;3.03;;;2.30;;
9948;SDS011;5013;51.840;8.276;2023-08-01T03:29:33;2.23;;;2.00;;
9948;SDS011;5013;51.840;8.276;2023-08-01T03:31:59;2.93;;;2.30;;
9948;SDS011;5013;51.840;8.276;2023-08-01T03:34:24;2.70;;;2.50;;
9948;SDS011;5013;51.840;8.276;2023-08-01T03:36:51;3.13;;;2.70;;
9948;SDS011;5013;51.840;8.276;2023-08-01T03:39:17;3.90;;;3.43;;
9948;SDS011;5013;51.840;8.276;2023-08-01T03:41:43;3.30;;;3.00;;
9948;SDS011;5013;51.840;8.276;2023-08-01T03:44:09;6.00;;;3.53;;
9948;SDS011;5013;51.840;8.276;2023-08-01T03:46:34;4.77;;;3.67;;
9948;SDS011;5013;51.840;8.276;2023-08-01T03:49:00;4.47;;;4.17;;
9948;SDS011;5013;51.840;8.276;2023-08-01T03:51:25;4.93;;;4.40;;
9948;SDS011;5013;51.840;8.276;2023-08-01T03:53:51;5.63;;;5.13;;
9948;SDS011;5013;51.840;8.276;2023-08-01T03:56:17;8.10;;;5.93;;
9948;SDS011;5013;51.840;8.276;2023-08-01T03:58:42;8.03;;;5.50;;
9948;SDS011;5013;51.840;8.276;2023-08-01T04:01:08;6.77;;;5.87;;
9948;SDS011;5013;51.840;8.276;2023-08-01T04:03:33;6.67;;;6.07;;
9948;SDS011;5013;51.840;8.276;2023-08-01T04:05:59;6.70;;;6.10;;
9948;SDS011;5013;51.840;8.276;2023-08-01T04:08:24;7.03;;;6.33;;
9948;SDS011;5013;51.840;8.276;2023-08-01T04:10:50;6.00;;;5.47;;
9948;SDS011;5013;51.840;8.276;2023-08-01T04:13:16;6.83;;;5.00;;
9948;SDS011;5013;51.840;8.276;2023-08-01T04:15:41;5.60;;;5.03;;
9948;SDS011;5013;51.840;8.276;2023-08-01T04:18:07;6.53;;;5.93;;
9948;SDS011;5013;51.840;8.276;2023-08-01T04:20:32;7.10;;;6.47;;
9948;SDS011;5013;51.840;8.276;2023-08-01T04:22:58;7.73;;;6.47;;
9948;SDS011;5013;51.840;8.276;2023-08-01T04:25:24;9.53;;;8.03;;
9948;SDS011;5013;51.840;8.276;2023-08-01T04:27:51;10.17;;;8.17;;
9948;SDS011;5013;51.840;8.276;2023-08-01T04:30:17;7.43;;;6.67;;
9948;SDS011;5013;51.840;8.276;2023-08-01T04:32:43;9.17;;;6.47;;
9948;SDS011;5013;51.840;8.276;2023-08-01T04:35:09;5.40;;;4.90;;
9948;SDS011;5013;51.840;8.276;2023-08-01T04:37:34;5.13;;;4.33;;
9948;SDS011;5013;51.840;8.276;2023-08-01T04:40:00;8.70;;;5.60;;
9948;SDS011;5013;51.840;8.276;2023-08-01T04:42:25;4.77;;;4.20;;
9948;SDS011;5013;51.840;8.276;2023-08-01T04:44:51;5.73;;;4.30;;
9948;SDS011;5013;51.840;8.276;2023-08-01T04:47:17;4.97;;;4.57;;
9948;SDS011;5013;51.840;8.276;2023-08-01T04:49:43;6.40;;;4.90;;
9948;SDS011;5013;51.840;8.276;2023-08-01T04:52:09;8.17;;;6.30;;
9948;SDS011;5013;51.840;8.276;2023-08-01T04:54:35;7.43;;;6.43;;
9948;SDS011;5013;51.840;8.276;2023-08-01T04:57:00;9.27;;;7.00;;
9948;SDS011;5013;51.840;8.276;2023-08-01T04:59:26;12.10;;;7.47;;
9948;SDS011;5013;51.840;8.276;2023-08-01T05:01:51;11.03;;;6.70;;
9948;SDS011;5013;51.840;8.276;2023-08-01T05:04:17;10.90;;;7.73;;
9948;SDS011;5013;51.840;8.276;2023-08-01T05:06:43;10.27;;;7.70;;
9948;SDS011;5013;51.840;8.276;2023-08-01T05:09:08;11.30;;;8.20;;
9948;SDS011;5013;51.840;8.276;2023-08-01T05:11:34;14.97;;;9.60;;
9948;SDS011;5013;51.840;8.276;2023-08-01T05:13:59;10.30;;;8.90;;
9948;SDS011;5013;51.840;8.276;2023-08-01T05:16:25;9.53;;;8.20;;
9948;SDS011;5013;51.840;8.276;2023-08-01T05:18:50;14.83;;;8.90;;
9948;SDS011;5013;51.840;8.276;2023-08-01T05:21:16;13.67;;;8.70;;
9948;SDS011;5013;51.840;8.276;2023-08-01T05:23:42;10.07;;;8.40;;
9948;SDS011;5013;51.840;8.276;2023-08-01T05:26:07;15.67;;;9.03;;
9948;SDS011;5013;51.840;8.276;2023-08-01T05:28:33;11.33;;;7.50;;
9948;SDS011;5013;51.840;8.276;2023-08-01T05:30:58;12.93;;;7.97;;
9948;SDS011;5013;51.840;8.276;2023-08-01T05:33:24;11.43;;;7.40;;
9948;SDS011;5013;51.840;8.276;2023-08-01T05:35:49;8.37;;;7.00;;
9948;SDS011;5013;51.840;8.276;2023-08-01T05:38:15;9.00;;;6.20;;
9948;SDS011;5013;51.840;8.276;2023-08-01T05:40:41;7.43;;;5.73;;
9948;SDS011;5013;51.840;8.276;2023-08-01T05:43:06;9.37;;;6.77;;
9948;SDS011;5013;51.840;8.276;2023-08-01T05:45:33;11.60;;;7.07;;
9948;SDS011;5013;51.840;8.276;2023-08-01T05:48:00;12.57;;;6.80;;
9948;SDS011;5013;51.840;8.276;2023-08-01T05:50:26;15.83;;;7.77;;
9948;SDS011;5013;51.840;8.276;2023-08-01T05:52:52;19.03;;;7.77;;
9948;SDS011;5013;51.840;8.276;2023-08-01T05:55:17;17.27;;;7.83;;
9948;SDS011;5013;51.840;8.276;2023-08-01T05:57:43;13.83;;;7.93;;
9948;SDS011;5013;51.840;8.276;2023-08-01T06:00:09;18.23;;;8.03;;
9948;SDS011;5013;51.840;8.276;2023-08-01T06:02:35;14.00;;;7.73;;
9948;SDS011;5013;51.840;8.276;2023-08-01T06:05:00;12.60;;;7.50;;
9948;SDS011;5013;51.840;8.276;2023-08-01T06:07:32;17.50;;;8.40;;
9948;SDS011;5013;51.840;8.276;2023-08-01T06:09:58;15.10;;;9.47;;
9948;SDS011;5013;51.840;8.276;2023-08-01T06:12:23;14.90;;;9.83;;
9948;SDS011;5013;51.840;8.276;2023-08-01T06:14:49;12.93;;;8.77;;
9948;SDS011;5013;51.840;8.276;2023-08-01T06:17:15;18.17;;;9.93;;
9948;SDS011;5013;51.840;8.276;2023-08-01T06:19:40;13.03;;;9.20;;
9948;SDS011;5013;51.840;8.276;2023-08-01T06:22:06;15.60;;;9.73;;
9948;SDS011;5013;51.840;8.276;2023-08-01T06:24:31;15.30;;;10.03;;
9948;SDS011;5013;51.840;8.276;2023-08-01T06:26:57;18.70;;;10.57;;
9948;SDS011;5013;51.840;8.276;2023-08-01T06:29:22;14.33;;;10.23;;
9948;SDS011;5013;51.840;8.276;2023-08-01T06:31:50;15.10;;;10.70;;
9948;SDS011;5013;51.840;8.276;2023-08-01T06:34:15;13.70;;;11.07;;
9948;SDS011;5013;51.840;8.276;2023-08-01T06:36:41;15.37;;;10.10;;
9948;SDS011;5013;51.840;8.276;2023-08-01T06:39:06;18.13;;;11.47;;
9948;SDS011;5013;51.840;8.276;2023-08-01T06:41:32;14.20;;;10.53;;
9948;SDS011;5013;51.840;8.276;2023-08-01T06:43:58;13.07;;;10.97;;
9948;SDS011;5013;51.840;8.276;2023-08-01T06:46:23;12.70;;;10.40;;
9948;SDS011;5013;51.840;8.276;2023-08-01T06:48:49;15.40;;;10.97;;
9948;SDS011;5013;51.840;8.276;2023-08-01T06:51:14;21.73;;;10.87;;
9948;SDS011;5013;51.840;8.276;2023-08-01T06:53:40;18.40;;;10.57;;
9948;SDS011;5013;51.840;8.276;2023-08-01T06:56:06;15.87;;;10.50;;
9948;SDS011;5013;51.840;8.276;2023-08-01T06:58:32;17.47;;;12.77;;
9948;SDS011;5013;51.840;8.276;2023-08-01T07:00:57;17.13;;;10.73;;
9948;SDS011;5013;51.840;8.276;2023-08-01T07:03:23;18.27;;;11.90;;
9948;SDS011;5013;51.840;8.276;2023-08-01T07:05:48;22.67;;;12.43;;
9948;SDS011;5013;51.840;8.276;2023-08-01T07:08:14;19.57;;;12.80;;
9948;SDS011;5013;51.840;8.276;2023-08-01T07:10:39;17.27;;;12.97;;
9948;SDS011;5013;51.840;8.276;2023-08-01T07:13:05;16.70;;;14.03;;
9948;SDS011;5013;51.840;8.276;2023-08-01T07:15:31;17.87;;;11.97;;
9948;SDS011;5013;51.840;8.276;2023-08-01T07:17:57;21.90;;;12.90;;
9948;SDS011;5013;51.840;8.276;2023-08-01T07:20:23;20.80;;;13.73;;
9948;SDS011;5013;51.840;8.276;2023-08-01T07:22:48;21.80;;;12.57;;
9948;SDS011;5013;51.840;8.276;2023-08-01T07:25:14;18.80;;;13.60;;
9948;SDS011;5013;51.840;8.276;2023-08-01T07:27:41;15.03;;;11.93;;
9948;SDS011;5013;51.840;8.276;2023-08-01T07:30:06;21.00;;;12.70;;
9948;SDS011;5013;51.840;8.276;2023-08-01T07:32:32;20.63;;;13.60;;
9948;SDS011;5013;51.840;8.276;2023-08-01T07:34:58;25.20;;;13.43;;
9948;SDS011;5013;51.840;8.276;2023-08-01T07:37:24;16.97;;;12.30;;
9948;SDS011;5013;51.840;8.276;2023-08-01T07:39:49;18.40;;;11.90;;
9948;SDS011;5013;51.840;8.276;2023-08-01T07:42:15;22.27;;;14.20;;
9948;SDS011;5013;51.840;8.276;2023-08-01T07:44:41;20.87;;;12.43;;
9948;SDS011;5013;51.840;8.276;2023-08-01T07:47:06;22.20;;;14.60;;
9948;SDS011;5013;51.840;8.276;2023-08-01T07:49:32;22.13;;;13.50;;
9948;SDS011;5013;51.840;8.276;2023-08-01T07:51:58;17.43;;;15.43;;
9948;SDS011;5013;51.840;8.276;2023-08-01T07:54:24;21.67;;;15.40;;
9948;SDS011;5013;51.840;8.276;2023-08-01T07:56:49;18.67;;;14.17;;
9948;SDS011;5013;51.840;8.276;2023-08-01T07:59:15;23.13;;;14.33;;
9948;SDS011;5013;51.840;8.276;2023-08-01T08:01:41;19.13;;;15.10;;
9948;SDS011;5013;51.840;8.276;2023-08-01T08:04:07;18.67;;;14.80;;
9948;SDS011;5013;51.840;8.276;2023-08-01T08:06:32;18.23;;;11.63;;
9948;SDS011;5013;51.840;8.276;2023-08-01T08:08:58;15.70;;;12.27;;
9948;SDS011;5013;51.840;8.276;2023-08-01T08:11:23;15.03;;;12.87;;
9948;SDS011;5013;51.840;8.276;2023-08-01T08:13:49;17.47;;;11.47;;
9948;SDS011;5013;51.840;8.276;2023-08-01T08:16:15;16.47;;;10.70;;
9948;SDS011;5013;51.840;8.276;2023-08-01T08:18:40;15.17;;;9.50;;
9948;SDS011;5013;51.840;8.276;2023-08-01T08:21:07;18.77;;;11.20;;
9948;SDS011;5013;51.840;8.276;2023-08-01T08:23:32;21.83;;;11.60;;
9948;SDS011;5013;51.840;8.276;2023-08-01T08:25:58;13.10;;;10.40;;
9948;SDS011;5013;51.840;8.276;2023-08-01T08:28:27;17.17;;;11.70;;
9948;SDS011;5013;51.840;8.276;2023-08-01T08:30:55;15.60;;;10.30;;
9948;SDS011;5013;51.840;8.276;2023-08-01T08:33:22;18.70;;;13.07;;
9948;SDS011;5013;51.840;8.276;2023-08-01T08:35:48;21.33;;;14.13;;
9948;SDS011;5013;51.840;8.276;2023-08-01T08:38:14;21.00;;;16.40;;
9948;SDS011;5013;51.840;8.276;2023-08-01T08:40:40;19.57;;;14.27;;
9948;SDS011;5013;51.840;8.276;2023-08-01T08:43:08;21.23;;;15.57;;
9948;SDS011;5013;51.840;8.276;2023-08-01T08:45:35;20.77;;;13.60;;
9948;SDS011;5013;51.840;8.276;2023-08-01T08:48:02;18.33;;;13.57;;
9948;SDS011;5013;51.840;8.276;2023-08-01T08:50:34;18.67;;;14.43;;
9948;SDS011;5013;51.840;8.276;2023-08-01T08:53:01;23.07;;;15.07;;
9948;SDS011;5013;51.840;8.276;2023-08-01T08:55:28;17.23;;;13.90;;
9948;SDS011;5013;51.840;8.276;2023-08-01T08:57:54;18.23;;;16.00;;
9948;SDS011;5013;51.840;8.276;2023-08-01T09:00:21;22.37;;;14.03;;
9948;SDS011;5013;51.840;8.276;2023-08-01T09:02:47;18.03;;;13.53;;
9948;SDS011;5013;51.840;8.276;2023-08-01T09:05:13;20.07;;;13.77;;
9948;SDS011;5013;51.840;8.276;2023-08-01T09:07:39;19.73;;;11.67;;
9948;SDS011;5013;51.840;8.276;2023-08-01T09:10:07;16.13;;;10.63;;
9948;SDS011;5013;51.840;8.276;2023-08-01T09:12:34;18.17;;;11.27;;
9948;SDS011;5013;51.840;8.276;2023-08-01T09:15:00;14.27;;;10.63;;
9948;SDS011;5013;51.840;8.276;2023-08-01T09:17:25;13.43;;;8.83;;
9948;SDS011;5013;51.840;8.276;2023-08-01T09:20:04;15.50;;;10.10;;
9948;SDS011;5013;51.840;8.276;2023-08-01T09:22:40;18.00;;;10.00;;
9948;SDS011;5013;51.840;8.276;2023-08-01T09:25:07;14.93;;;9.60;;
9948;SDS011;5013;51.840;8.276;2023-08-01T09:27:33;18.50;;;9.53;;
9948;SDS011;5013;51.840;8.276;2023-08-01T09:30:09;11.80;;;9.30;;
9948;SDS011;5013;51.840;8.276;2023-08-01T09:32:50;10.50;;;8.40;;
9948;SDS011;5013;51.840;8.276;2023-08-01T09:35:17;11.83;;;7.90;;
9948;SDS011;5013;51.840;8.276;2023-08-01T09:37:42;12.37;;;7.60;;
9948;SDS011;5013;51.840;8.276;2023-08-01T09:40:08;9.63;;;7.33;;
9948;SDS011;5013;51.840;8.276;2023-08-01T09:42:38;10.63;;;8.37;;
9948;SDS011;5013;51.840;8.276;2023-08-01T09:45:06;10.77;;;7.77;;
9948;SDS011;5013;51.840;8.276;2023-08-01T09:47:37;15.87;;;9.07;;
9948;SDS011;5013;51.840;8.276;2023-08-01T09:50:03;15.43;;;8.90;;
9948;SDS011;5013;51.840;8.276;2023-08-01T09:52:29;9.03;;;7.73;;
9948;SDS011;5013;51.840;8.276;2023-08-01T09:54:55;14.73;;;8.40;;
9948;SDS011;5013;51.840;8.276;2023-08-01T09:57:20;8.70;;;7.83;;
9948;SDS011;5013;51.840;8.276;2023-08-01T09:59:47;12.70;;;8.40;;
9948;SDS011;5013;51.840;8.276;2023-08-01T10:02:15;10.50;;;7.90;;
9948;SDS011;5013;51.840;8.276;2023-08-01T10:04:44;10.87;;;8.20;;
9948;SDS011;5013;51.840;8.276;2023-08-01T10:07:11;12.07;;;8.60;;
9948;SDS011;5013;51.840;8.276;2023-08-01T10:09:38;7.97;;;6.40;;
9948;SDS011;5013;51.840;8.276;2023-08-01T10:12:06;8.20;;;5.60;;
9948;SDS011;5013;51.840;8.276;2023-08-01T10:14:32;10.47;;;6.20;;
9948;SDS011;5013;51.840;8.276;2023-08-01T10:16:59;8.50;;;5.77;;
9948;SDS011;5013;51.840;8.276;2023-08-01T10:19:25;5.73;;;5.17;;
9948;SDS011;5013;51.840;8.276;2023-08-01T10:21:51;7.40;;;5.63;;
9948;SDS011;5013;51.840;8.276;2023-08-01T10:24:17;7.87;;;5.33;;
9948;SDS011;5013;51.840;8.276;2023-08-01T10:26:44;7.93;;;5.30;;
9948;SDS011;5013;51.840;8.276;2023-08-01T10:29:13;10.43;;;6.20;;
9948;SDS011;5013;51.840;8.276;2023-08-01T10:31:39;10.50;;;5.40;;
9948;SDS011;5013;51.840;8.276;2023-08-01T10:34:16;8.20;;;6.37;;
9948;SDS011;5013;51.840;8.276;2023-08-01T10:36:52;9.73;;;5.87;;
9948;SDS011;5013;51.840;8.276;2023-08-01T10:39:22;7.13;;;5.20;;
9948;SDS011;5013;51.840;8.276;2023-08-01T10:41:56;9.10;;;4.60;;
9948;SDS011;5013;51.840;8.276;2023-08-01T10:44:30;6.67;;;4.70;;
9948;SDS011;5013;51.840;8.276;2023-08-01T10:47:01;10.83;;;5.77;;
9948;SDS011;5013;51.840;8.276;2023-08-01T10:49:41;11.60;;;6.10;;
9948;SDS011;5013;51.840;8.276;2023-08-01T10:52:18;12.03;;;6.33;;
9948;SDS011;5013;51.840;8.276;2023-08-01T10:54:48;8.80;;;6.03;;
9948;SDS011;5013;51.840;8.276;2023-08-01T10:57:34;5.07;;;3.53;;
9948;SDS011;5013;51.840;8.276;2023-08-01T11:00:02;15.27;;;4.53;;
9948;SDS011;5013;51.840;8.276;2023-08-01T11:02:30;4.30;;;3.50;;
9948;SDS011;5013;51.840;8.276;2023-08-01T11:07:26;9.23;;;4.53;;
9948;SDS011;5013;51.840;8.276;2023-08-01T11:10:08;10.13;;;5.20;;
9948;SDS011;5013;51.840;8.276;2023-08-01T11:12:38;6.20;;;5.60;;
9948;SDS011;5013;51.840;8.276;2023-08-01T11:15:06;9.13;;;6.30;;
9948;SDS011;5013;51.840;8.276;2023-08-01T11:17:35;11.13;;;6.67;;
9948;SDS011;5013;51.840;8.276;2023-08-01T11:20:02;7.17;;;6.40;;
9948;SDS011;5013;51.840;8.276;2023-08-01T11:22:32;11.37;;;6.33;;
9948;SDS011;5013;51.840;8.276;2023-08-01T11:24:58;10.33;;;7.27;;
9948;SDS011;5013;51.840;8.276;2023-08-01T11:27:24;10.03;;;6.40;;
9948;SDS011;5013;51.840;8.276;2023-08-01T11:29:51;7.83;;;7.03;;
9948;SDS011;5013;51.840;8.276;2023-08-01T11:32:17;10.10;;;6.70;;
9948;SDS011;5013;51.840;8.276;2023-08-01T11:34:45;6.63;;;5.70;;
9948;SDS011;5013;51.840;8.276;2023-08-01T11:37:11;7.43;;;6.50;;
9948;SDS011;5013;51.840;8.276;2023-08-01T11:39:45;12.17;;;7.57;;
9948;SDS011;5013;51.840;8.276;2023-08-01T11:42:16;11.23;;;7.30;;
9948;SDS011;5013;51.840;8.276;2023-08-01T11:44:42;6.30;;;5.73;;
9948;SDS011;5013;51.840;8.276;2023-08-01T11:47:12;10.13;;;6.57;;
9948;SDS011;5013;51.840;8.276;2023-08-01T11:49:39;6.93;;;4.70;;
9948;SDS011;5013;51.840;8.276;2023-08-01T11:52:09;5.00;;;4.40;;
9948;SDS011;5013;51.840;8.276;2023-08-01T11:54:43;7.13;;;3.90;;
9948;SDS011;5013;51.840;8.276;2023-08-01T11:57:10;6.63;;;4.10;;
9948;SDS011;5013;51.840;8.276;2023-08-01T11:59:45;5.93;;;3.90;;
9948;SDS011;5013;51.840;8.276;2023-08-01T12:02:24;4.60;;;3.77;;
9948;SDS011;5013;51.840;8.276;2023-08-01T12:04:51;5.97;;;3.40;;
9948;SDS011;5013;51.840;8.276;2023-08-01T12:07:17;4.07;;;3.23;;
9948;SDS011;5013;51.840;8.276;2023-08-01T12:09:44;8.00;;;3.90;;
9948;SDS011;5013;51.840;8.276;2023-08-01T12:12:19;3.13;;;2.87;;
9948;SDS011;5013;51.840;8.276;2023-08-01T12:14:45;4.00;;;3.20;;
9948;SDS011;5013;51.840;8.276;2023-08-01T12:17:10;3.90;;;3.20;;
9948;SDS011;5013;51.840;8.276;2023-08-01T12:19:36;3.73;;;3.13;;
9948;SDS011;5013;51.840;8.276;2023-08-01T12:22:02;2.60;;;2.40;;
9948;SDS011;5013;51.840;8.276;2023-08-01T12:24:27;4.37;;;2.20;;
9948;SDS011;5013;51.840;8.276;2023-08-01T12:26:53;9.23;;;5.77;;
9948;SDS011;5013;51.840;8.276;2023-08-01T12:29:18;9.00;;;5.70;;
9948;SDS011;5013;51.840;8.276;2023-08-01T12:31:44;21.23;;;15.13;;
9948;SDS011;5013;51.840;8.276;2023-08-01T12:34:11;27.83;;;20.60;;
9948;SDS011;5013;51.840;8.276;2023-08-01T12:36:36;15.33;;;11.00;;
9948;SDS011;5013;51.840;8.276;2023-08-01T12:39:02;40.50;;;29.53;;
9948;SDS011;5013;51.840;8.276;2023-08-01T12:41:28;22.97;;;15.53;;
9948;SDS011;5013;51.840;8.276;2023-08-01T12:43:53;30.23;;;21.13;;
9948;SDS011;5013;51.840;8.276;2023-08-01T12:46:19;39.23;;;27.67;;
9948;SDS011;5013;51.840;8.276;2023-08-01T12:48:45;16.00;;;13.00;;
9948;SDS011;5013;51.840;8.276;2023-08-01T12:51:11;22.87;;;17.40;;
9948;SDS011;5013;51.840;8.276;2023-08-01T12:53:36;17.30;;;15.00;;
9948;SDS011;5013;51.840;8.276;2023-08-01T12:56:04;5.27;;;4.80;;
9948;SDS011;5013;51.840;8.276;2023-08-01T12:58:29;10.00;;;5.70;;
9948;SDS011;5013;51.840;8.276;2023-08-01T13:00:55;4.90;;;4.13;;
9948;SDS011;5013;51.840;8.276;2023-08-01T13:03:21;13.33;;;9.50;;
9948;SDS011;5013;51.840;8.276;2023-08-01T13:05:46;8.27;;;6.03;;
9948;SDS011;5013;51.840;8.276;2023-08-01T13:08:12;10.17;;;5.90;;
9948;SDS011;5013;51.840;8.276;2023-08-01T13:10:38;15.20;;;5.00;;
9948;SDS011;5013;51.840;8.276;2023-08-01T13:13:03;9.47;;;3.73;;
9948;SDS011;5013;51.840;8.276;2023-08-01T13:15:29;7.27;;;3.50;;
9948;SDS011;5013;51.840;8.276;2023-08-01T13:17:56;11.27;;;3.53;;
9948;SDS011;5013;51.840;8.276;2023-08-01T13:20:22;3.63;;;3.00;;
9948;SDS011;5013;51.840;8.276;2023-08-01T13:22:49;5.87;;;3.10;;
9948;SDS011;5013;51.840;8.276;2023-08-01T13:25:16;3.63;;;2.80;;
9948;SDS011;5013;51.840;8.276;2023-08-01T13:27:42;3.97;;;2.80;;
9948;SDS011;5013;51.840;8.276;2023-08-01T13:30:08;7.47;;;2.70;;
9948;SDS011;5013;51.840;8.276;2023-08-01T13:32:34;5.67;;;3.37;;
9948;SDS011;5013;51.840;8.276;2023-08-01T13:35:00;4.30;;;3.03;;
9948;SDS011;5013;51.840;8.276;2023-08-01T13:37:26;4.63;;;2.90;;
9948;SDS011;5013;51.840;8.276;2023-08-01T13:39:54;7.70;;;3.33;;
9948;SDS011;5013;51.840;8.276;2023-08-01T13:42:21;8.90;;;4.80;;
9948;SDS011;5013;51.840;8.276;2023-08-01T13:44:46;5.83;;;4.37;;
9948;SDS011;5013;51.840;8.276;2023-08-01T13:47:12;4.83;;;4.13;;
9948;SDS011;5013;51.840;8.276;2023-08-01T13:49:37;6.40;;;4.80;;
9948;SDS011;5013;51.840;8.276;2023-08-01T13:52:03;5.00;;;3.30;;
9948;SDS011;5013;51.840;8.276;2023-08-01T13:54:29;6.90;;;3.20;;
9948;SDS011;5013;51.840;8.276;2023-08-01T13:56:55;5.90;;;2.90;;
9948;SDS011;5013;51.840;8.276;2023-08-01T13:59:21;6.67;;;3.20;;
9948;SDS011;5013;51.840;8.276;2023-08-01T14:01:47;4.97;;;2.80;;
9948;SDS011;5013;51.840;8.276;2023-08-01T14:04:12;3.67;;;2.60;;
9948;SDS011;5013;51.840;8.276;2023-08-01T14:06:41;4.33;;;2.60;;
9948;SDS011;5013;51.840;8.276;2023-08-01T14:09:07;4.33;;;2.30;;
9948;SDS011;5013;51.840;8.276;2023-08-01T14:11:33;4.30;;;2.30;;
9948;SDS011;5013;51.840;8.276;2023-08-01T14:13:59;6.00;;;2.57;;
9948;SDS011;5013;51.840;8.276;2023-08-01T14:16:25;4.67;;;2.23;;
9948;SDS011;5013;51.840;8.276;2023-08-01T14:18:51;4.47;;;2.10;;
9948;SDS011;5013;51.840;8.276;2023-08-01T14:21:16;5.77;;;2.47;;
9948;SDS011;5013;51.840;8.276;2023-08-01T14:23:42;5.03;;;2.00;;
9948;SDS011;5013;51.840;8.276;2023-08-01T14:26:08;2.67;;;2.30;;
9948;SDS011;5013;51.840;8.276;2023-08-01T14:28:33;7.03;;;2.40;;
9948;SDS011;5013;51.840;8.276;2023-08-01T14:31:02;4.57;;;2.00;;
9948;SDS011;5013;51.840;8.276;2023-08-01T14:33:28;3.70;;;2.17;;
9948;SDS011;5013;51.840;8.276;2023-08-01T14:35:55;5.73;;;2.30;;
9948;SDS011;5013;51.840;8.276;2023-08-01T14:38:30;5.10;;;2.40;;
9948;SDS011;5013;51.840;8.276;2023-08-01T14:40:55;4.80;;;2.67;;
9948;SDS011;5013;51.840;8.276;2023-08-01T14:43:21;3.80;;;2.53;;
9948;SDS011;5013;51.840;8.276;2023-08-01T14:45:47;3.10;;;1.90;;
9948;SDS011;5013;51.840;8.276;2023-08-01T14:48:12;5.93;;;2.20;;
9948;SDS011;5013;51.840;8.276;2023-08-01T14:50:39;4.37;;;2.27;;
9948;SDS011;5013;51.840;8.276;2023-08-01T14:53:04;2.73;;;2.17;;
9948;SDS011;5013;51.840;8.276;2023-08-01T14:55:31;5.07;;;2.17;;
9948;SDS011;5013;51.840;8.276;2023-08-01T14:57:57;9.83;;;2.77;;
9948;SDS011;5013;51.840;8.276;2023-08-01T15:00:23;4.97;;;2.30;;
9948;SDS011;5013;51.840;8.276;2023-08-01T15:02:48;5.07;;;2.53;;
9948;SDS011;5013;51.840;8.276;2023-08-01T15:05:14;5.80;;;2.50;;